createdAt,value
2018-01-01T00:00:48.651Z,990.31
2018-01-01T00:01:48.632Z,990.33
2018-01-01T00:02:48.616Z,990.23
2018-01-01T00:03:48.596Z,990.24
2018-01-01T00:04:48.580Z,990.15
2018-01-01T00:05:48.563Z,990.20
2018-01-01T00:06:48.546Z,990.21
2018-01-01T00:07:48.524Z,990.17
2018-01-01T00:08:48.509Z,990.22
2018-01-01T00:09:48.507Z,990.24
2018-01-01T00:10:48.472Z,990.19
2018-01-01T00:11:48.453Z,990.19
2018-01-01T00:12:48.442Z,990.28
2018-01-01T00:13:48.432Z,990.28
2018-01-01T00:14:48.405Z,990.23
2018-01-01T00:15:48.384Z,990.23
2018-01-01T00:16:48.374Z,990.35
2018-01-01T00:17:48.398Z,990.46
2018-01-01T00:18:48.329Z,990.46
2018-01-01T00:19:48.314Z,990.49
2018-01-01T00:20:48.290Z,990.51
2018-01-01T00:21:48.277Z,990.55
2018-01-01T00:22:48.266Z,990.63
2018-01-01T00:23:48.258Z,990.54
2018-01-01T00:24:48.215Z,990.63
2018-01-01T00:25:48.206Z,990.55
2018-01-01T00:26:48.188Z,990.50
2018-01-01T00:27:48.168Z,990.56
2018-01-01T00:28:48.140Z,990.55
2018-01-01T00:29:48.131Z,990.58
2018-01-01T00:30:48.106Z,990.50
2018-01-01T00:31:48.358Z,990.48
2018-01-01T00:32:48.073Z,990.52
2018-01-01T00:33:48.060Z,990.61
2018-01-01T00:34:48.033Z,990.59
2018-01-01T00:35:48.027Z,990.69
2018-01-01T00:36:48.006Z,990.63
2018-01-01T00:37:47.983Z,990.73
2018-01-01T00:38:47.967Z,990.80
2018-01-01T00:39:47.952Z,990.73
2018-01-01T00:40:47.976Z,990.70
2018-01-01T00:41:47.911Z,990.78
2018-01-01T00:42:47.901Z,990.88
2018-01-01T00:43:47.879Z,990.70
2018-01-01T00:44:47.860Z,990.65
2018-01-01T00:45:47.841Z,990.75
2018-01-01T00:46:47.837Z,990.72
2018-01-01T00:47:47.802Z,990.66
2018-01-01T00:48:47.785Z,990.74
2018-01-01T00:49:47.765Z,990.82
2018-01-01T00:50:47.754Z,990.72
2018-01-01T00:51:47.735Z,990.81
2018-01-01T00:52:47.731Z,990.65
2018-01-01T00:53:47.704Z,990.74
2018-01-01T00:54:47.679Z,990.68
2018-01-01T00:55:47.656Z,990.72
2018-01-01T00:56:47.636Z,990.66
2018-01-01T00:57:47.618Z,990.69
2018-01-01T00:58:47.634Z,990.76
2018-01-01T00:59:47.590Z,990.67
2018-01-01T01:00:47.568Z,990.81
2018-01-01T01:01:47.548Z,990.76
2018-01-01T01:02:47.532Z,990.76
2018-01-01T01:03:47.513Z,990.80
2018-01-01T01:04:47.496Z,990.89
2018-01-01T01:05:47.480Z,990.72
2018-01-01T01:06:47.458Z,990.64
2018-01-01T01:07:47.436Z,990.68
2018-01-01T01:08:47.424Z,990.67
2018-01-01T01:09:47.406Z,990.65
2018-01-01T01:10:47.379Z,990.69
2018-01-01T01:11:47.364Z,990.68
2018-01-01T01:12:47.349Z,990.73
2018-01-01T01:13:47.333Z,990.68
2018-01-01T01:14:47.311Z,990.74
2018-01-01T01:15:47.289Z,990.70
2018-01-01T01:16:47.322Z,990.65
2018-01-01T01:17:47.258Z,990.59
2018-01-01T01:18:47.246Z,990.64
2018-01-01T01:19:47.235Z,990.63
2018-01-01T01:20:47.222Z,990.66
2018-01-01T01:21:47.188Z,990.71
2018-01-01T01:22:47.166Z,990.77
2018-01-01T01:23:47.155Z,990.75
2018-01-01T01:24:47.140Z,990.71
2018-01-01T01:25:47.123Z,990.72
2018-01-01T01:26:47.092Z,990.66
2018-01-01T01:27:47.084Z,990.69
2018-01-01T01:28:47.060Z,990.76
2018-01-01T01:29:47.049Z,990.72
2018-01-01T01:30:47.020Z,990.67
2018-01-01T01:31:47.005Z,990.68
2018-01-01T01:32:46.982Z,990.81
2018-01-01T01:33:46.970Z,990.79
2018-01-01T01:34:46.985Z,990.71
2018-01-01T01:35:46.936Z,990.72
2018-01-01T01:36:46.907Z,990.83
2018-01-01T01:37:46.896Z,990.75
2018-01-01T01:38:46.871Z,990.79
2018-01-01T01:39:46.856Z,990.77
2018-01-01T01:40:46.840Z,990.74
2018-01-01T01:41:46.821Z,990.77
2018-01-01T01:42:46.800Z,990.81
2018-01-01T01:43:46.951Z,990.79
2018-01-01T01:44:46.764Z,990.71
2018-01-01T01:45:46.752Z,990.76
2018-01-01T01:46:46.731Z,990.80
2018-01-01T01:47:46.709Z,990.70
2018-01-01T01:48:46.691Z,990.71
2018-01-01T01:49:46.679Z,990.75
2018-01-01T01:50:46.651Z,990.68
2018-01-01T01:51:46.638Z,990.71
2018-01-01T01:52:46.619Z,990.70
2018-01-01T01:53:46.602Z,990.68
2018-01-01T01:54:46.579Z,990.75
2018-01-01T01:55:46.560Z,990.67
2018-01-01T01:56:46.545Z,990.77
2018-01-01T01:57:46.527Z,990.75
2018-01-01T01:58:46.535Z,990.72
2018-01-01T01:59:46.493Z,990.75
2018-01-01T02:00:46.494Z,990.81
2018-01-01T02:01:46.462Z,990.84
2018-01-01T02:02:46.489Z,990.83
2018-01-01T02:03:46.423Z,990.80
2018-01-01T02:04:46.414Z,990.87
2018-01-01T02:05:46.376Z,990.76
2018-01-01T02:06:46.359Z,990.74
2018-01-01T02:07:46.345Z,990.77
2018-01-01T02:08:46.348Z,990.82
2018-01-01T02:09:46.313Z,990.80
2018-01-01T02:10:46.295Z,990.65
2018-01-01T02:11:46.270Z,990.81
2018-01-01T02:12:46.275Z,990.79
2018-01-01T02:13:46.233Z,990.92
2018-01-01T02:14:46.220Z,990.82
2018-01-01T02:15:46.202Z,990.87
2018-01-01T02:16:46.179Z,990.77
2018-01-01T02:17:46.157Z,990.73
2018-01-01T02:18:46.146Z,990.81
2018-01-01T02:19:46.131Z,990.80
2018-01-01T02:20:46.109Z,990.71
2018-01-01T02:21:46.086Z,990.83
2018-01-01T02:22:46.075Z,990.75
2018-01-01T02:23:46.054Z,990.77
2018-01-01T02:24:46.031Z,990.77
2018-01-01T02:25:46.018Z,990.60
2018-01-01T02:26:46.004Z,990.78
2018-01-01T02:27:45.978Z,990.73
2018-01-01T02:28:45.969Z,990.69
2018-01-01T02:29:45.958Z,990.75
2018-01-01T02:30:45.936Z,990.77
2018-01-01T02:31:45.936Z,990.72
2018-01-01T02:32:45.896Z,990.71
2018-01-01T02:33:45.877Z,990.80
2018-01-01T02:34:45.848Z,990.67
2018-01-01T02:35:45.838Z,990.69
2018-01-01T02:36:45.816Z,990.77
2018-01-01T02:37:45.823Z,990.68
2018-01-01T02:38:45.827Z,990.61
2018-01-01T02:39:45.766Z,990.68
2018-01-01T02:40:45.742Z,990.91
2018-01-01T02:41:45.723Z,990.74
2018-01-01T02:42:45.704Z,990.79
2018-01-01T02:43:45.696Z,990.65
2018-01-01T02:44:45.720Z,990.49
2018-01-01T02:45:45.652Z,990.76
2018-01-01T02:46:45.626Z,990.57
2018-01-01T02:47:45.619Z,990.53
2018-01-01T02:48:45.593Z,990.45
2018-01-01T02:49:45.577Z,990.59
2018-01-01T02:50:45.557Z,990.69
2018-01-01T02:51:45.539Z,990.61
2018-01-01T02:52:45.521Z,990.66
2018-01-01T02:53:45.506Z,990.65
2018-01-01T02:54:45.481Z,990.66
2018-01-01T02:55:45.468Z,990.56
2018-01-01T02:56:45.450Z,990.60
2018-01-01T02:57:45.447Z,990.55
2018-01-01T02:58:45.411Z,990.61
2018-01-01T02:59:45.393Z,990.62
2018-01-01T03:00:45.383Z,990.55
2018-01-01T03:01:45.358Z,990.59
2018-01-01T03:02:45.340Z,990.70
2018-01-01T03:03:45.318Z,990.64
2018-01-01T03:04:45.294Z,990.54
2018-01-01T03:05:45.286Z,990.60
2018-01-01T03:06:45.267Z,990.57
2018-01-01T03:07:45.244Z,990.78
2018-01-01T03:08:45.227Z,990.62
2018-01-01T03:09:45.215Z,990.77
2018-01-01T03:10:45.227Z,990.62
2018-01-01T03:11:45.175Z,990.53
2018-01-01T03:12:45.156Z,990.46
2018-01-01T03:13:45.158Z,990.75
2018-01-01T03:14:45.186Z,990.54
2018-01-01T03:15:45.105Z,990.52
2018-01-01T03:16:45.081Z,990.44
2018-01-01T03:17:45.066Z,990.40
2018-01-01T03:18:45.045Z,990.57
2018-01-01T03:19:45.029Z,990.38
2018-01-01T03:20:45.162Z,990.50
2018-01-01T03:21:44.997Z,990.76
2018-01-01T03:22:44.972Z,990.50
2018-01-01T03:23:44.958Z,990.75
2018-01-01T03:24:44.973Z,990.61
2018-01-01T03:25:44.932Z,990.59
2018-01-01T03:26:44.900Z,990.64
2018-01-01T03:27:44.882Z,990.75
2018-01-01T03:28:44.868Z,990.58
2018-01-01T03:29:44.857Z,990.64
2018-01-01T03:30:44.837Z,990.51
2018-01-01T03:31:44.807Z,990.49
2018-01-01T03:32:44.788Z,990.60
2018-01-01T03:33:44.781Z,990.55
2018-01-01T03:34:44.781Z,990.55
2018-01-01T03:35:44.748Z,990.73
2018-01-01T03:36:44.717Z,990.59
2018-01-01T03:37:44.735Z,990.68
2018-01-01T03:38:44.678Z,990.65
2018-01-01T03:39:44.729Z,990.65
2018-01-01T03:40:44.726Z,990.82
2018-01-01T03:41:44.627Z,990.81
2018-01-01T03:42:44.606Z,990.86
2018-01-01T03:43:44.585Z,990.87
2018-01-01T03:44:44.622Z,990.95
2018-01-01T03:45:44.580Z,990.93
2018-01-01T03:46:44.599Z,991.14
2018-01-01T03:47:44.512Z,991.16
2018-01-01T03:48:44.535Z,991.00
2018-01-01T03:49:44.482Z,990.96
2018-01-01T03:50:44.461Z,991.00
2018-01-01T03:51:44.440Z,991.00
2018-01-01T03:52:44.411Z,990.92
2018-01-01T03:53:44.417Z,991.01
2018-01-01T03:54:44.377Z,991.18
2018-01-01T03:55:44.359Z,990.93
2018-01-01T03:56:44.347Z,990.98
2018-01-01T03:57:44.337Z,990.89
2018-01-01T03:58:44.309Z,990.96
2018-01-01T03:59:44.288Z,991.00
2018-01-01T04:00:44.264Z,990.90
2018-01-01T04:01:44.255Z,991.04
2018-01-01T04:02:44.234Z,990.89
2018-01-01T04:03:44.210Z,991.00
2018-01-01T04:04:44.197Z,990.98
2018-01-01T04:05:44.179Z,990.93
2018-01-01T04:06:44.166Z,991.03
2018-01-01T04:07:44.141Z,991.02
2018-01-01T04:08:44.117Z,991.05
2018-01-01T04:09:44.107Z,991.05
2018-01-01T04:10:44.084Z,991.13
2018-01-01T04:11:44.064Z,990.96
2018-01-01T04:12:44.128Z,990.97
2018-01-01T04:13:44.054Z,991.03
2018-01-01T04:14:44.011Z,991.08
2018-01-01T04:15:43.991Z,991.08
2018-01-01T04:16:43.967Z,990.99
2018-01-01T04:17:43.959Z,991.12
2018-01-01T04:18:43.934Z,991.24
2018-01-01T04:19:43.910Z,991.08
2018-01-01T04:20:43.896Z,991.12
2018-01-01T04:21:43.881Z,991.13
2018-01-01T04:22:43.866Z,991.19
2018-01-01T04:23:43.839Z,991.21
2018-01-01T04:24:43.831Z,991.22
2018-01-01T04:25:43.810Z,991.19
2018-01-01T04:26:43.782Z,991.15
2018-01-01T04:27:43.778Z,991.36
2018-01-01T04:28:43.749Z,991.39
2018-01-01T04:29:43.744Z,991.21
2018-01-01T04:30:43.732Z,991.18
2018-01-01T04:31:43.699Z,991.22
2018-01-01T04:32:43.670Z,991.43
2018-01-01T04:33:43.653Z,991.34
2018-01-01T04:34:43.677Z,991.30
2018-01-01T04:35:43.623Z,991.32
2018-01-01T04:36:43.623Z,991.48
2018-01-01T04:37:43.604Z,991.53
2018-01-01T04:38:43.552Z,991.43
2018-01-01T04:39:43.574Z,991.52
2018-01-01T04:40:43.516Z,991.48
2018-01-01T04:41:43.510Z,991.52
2018-01-01T04:42:43.494Z,991.53
2018-01-01T04:43:43.538Z,991.53
2018-01-01T04:44:43.570Z,991.52
2018-01-01T04:45:43.486Z,991.62
2018-01-01T04:46:43.472Z,991.59
2018-01-01T04:47:43.398Z,991.61
2018-01-01T04:48:43.382Z,991.62
2018-01-01T04:49:43.394Z,991.68
2018-01-01T04:50:43.363Z,991.64
2018-01-01T04:51:43.352Z,991.90
2018-01-01T04:52:43.315Z,991.74
2018-01-01T04:53:43.308Z,991.75
2018-01-01T04:54:43.291Z,991.76
2018-01-01T04:55:43.298Z,991.77
2018-01-01T04:56:43.238Z,991.79
2018-01-01T04:57:43.222Z,991.79
2018-01-01T04:58:43.195Z,991.86
2018-01-01T04:59:43.196Z,991.85
2018-01-01T05:00:43.170Z,991.79
2018-01-01T05:01:43.188Z,991.79
2018-01-01T05:02:43.155Z,991.77
2018-01-01T05:03:43.115Z,991.87
2018-01-01T05:04:43.176Z,991.93
2018-01-01T05:05:43.087Z,991.95
2018-01-01T05:06:43.074Z,991.97
2018-01-01T05:07:43.076Z,992.01
2018-01-01T05:08:43.044Z,992.02
2018-01-01T05:09:43.013Z,991.99
2018-01-01T05:10:43.091Z,991.99
2018-01-01T05:11:42.968Z,992.00
2018-01-01T05:12:42.950Z,992.03
2018-01-01T05:13:42.953Z,992.07
2018-01-01T05:14:42.890Z,992.10
2018-01-01T05:15:42.893Z,992.08
2018-01-01T05:16:42.870Z,992.10
2018-01-01T05:17:42.859Z,992.17
2018-01-01T05:18:42.806Z,992.19
2018-01-01T05:19:42.800Z,992.19
2018-01-01T05:20:42.796Z,992.14
2018-01-01T05:21:42.804Z,992.28
2018-01-01T05:22:42.724Z,992.30
2018-01-01T05:23:42.748Z,992.42
2018-01-01T05:24:42.731Z,992.36
2018-01-01T05:25:42.733Z,992.35
2018-01-01T05:26:42.662Z,992.39
2018-01-01T05:27:42.653Z,992.37
2018-01-01T05:28:42.661Z,992.46
2018-01-01T05:29:42.659Z,992.37
2018-01-01T05:30:42.618Z,992.39
2018-01-01T05:31:42.589Z,992.50
2018-01-01T05:32:42.553Z,992.38
2018-01-01T05:33:42.526Z,992.57
2018-01-01T05:34:42.558Z,992.65
2018-01-01T05:35:42.485Z,992.53
2018-01-01T05:36:42.487Z,992.58
2018-01-01T05:37:42.491Z,992.53
2018-01-01T05:38:42.480Z,992.63
2018-01-01T05:39:42.447Z,992.72
2018-01-01T05:40:42.438Z,992.66
2018-01-01T05:41:42.457Z,992.82
2018-01-01T05:42:42.409Z,992.81
2018-01-01T05:43:42.334Z,992.92
2018-01-01T05:44:42.319Z,992.86
2018-01-01T05:45:42.292Z,992.82
2018-01-01T05:46:42.314Z,992.85
2018-01-01T05:47:42.319Z,992.77
2018-01-01T05:48:42.317Z,992.87
2018-01-01T05:49:42.246Z,992.87
2018-01-01T05:50:42.241Z,992.75
2018-01-01T05:51:42.179Z,992.89
2018-01-01T05:52:42.182Z,992.88
2018-01-01T05:53:42.218Z,992.89
2018-01-01T05:54:42.158Z,992.91
2018-01-01T05:55:42.194Z,992.99
2018-01-01T05:56:42.100Z,993.02
2018-01-01T05:57:42.086Z,993.02
2018-01-01T05:58:42.060Z,993.04
2018-01-01T05:59:42.083Z,993.01
2018-01-01T06:00:42.038Z,993.07
2018-01-01T06:01:42.034Z,993.00
2018-01-01T06:02:41.998Z,993.07
2018-01-01T06:03:41.986Z,993.03
2018-01-01T06:04:41.978Z,993.04
2018-01-01T06:05:41.906Z,993.01
2018-01-01T06:06:41.942Z,993.00
2018-01-01T06:07:41.889Z,992.97
2018-01-01T06:08:41.896Z,992.97
2018-01-01T06:09:41.868Z,992.93
2018-01-01T06:10:41.857Z,992.93
2018-01-01T06:11:41.815Z,992.79
2018-01-01T06:12:41.780Z,993.00
2018-01-01T06:13:41.791Z,993.01
2018-01-01T06:14:41.783Z,993.00
2018-01-01T06:15:41.733Z,992.97
2018-01-01T06:16:41.710Z,993.04
2018-01-01T06:17:41.688Z,993.08
2018-01-01T06:18:41.730Z,993.12
2018-01-01T06:19:41.659Z,993.11
2018-01-01T06:20:41.628Z,993.19
2018-01-01T06:21:41.612Z,993.17
2018-01-01T06:22:41.590Z,993.17
2018-01-01T06:23:41.588Z,993.14
2018-01-01T06:24:41.557Z,993.17
2018-01-01T06:25:41.540Z,993.09
2018-01-01T06:26:41.516Z,993.11
2018-01-01T06:27:41.534Z,993.17
2018-01-01T06:28:41.487Z,993.14
2018-01-01T06:29:41.460Z,993.03
2018-01-01T06:30:41.464Z,993.21
2018-01-01T06:31:41.455Z,993.33
2018-01-01T06:32:41.407Z,993.26
2018-01-01T06:33:41.389Z,993.35
2018-01-01T06:34:41.350Z,993.27
2018-01-01T06:35:41.341Z,993.27
2018-01-01T06:36:41.316Z,993.26
2018-01-01T06:37:41.298Z,993.33
2018-01-01T06:38:41.299Z,993.27
2018-01-01T06:39:41.295Z,993.26
2018-01-01T06:40:41.291Z,993.23
2018-01-01T06:41:41.263Z,993.31
2018-01-01T06:42:41.264Z,993.17
2018-01-01T06:43:41.209Z,993.22
2018-01-01T06:44:41.180Z,993.29
2018-01-01T06:45:41.185Z,993.28
2018-01-01T06:46:41.142Z,993.32
2018-01-01T06:47:41.129Z,993.31
2018-01-01T06:48:41.100Z,993.33
2018-01-01T06:49:41.074Z,993.27
2018-01-01T06:50:41.074Z,993.37
2018-01-01T06:51:41.039Z,993.27
2018-01-01T06:52:41.015Z,993.31
2018-01-01T06:53:41.089Z,993.31
2018-01-01T06:54:40.998Z,993.32
2018-01-01T06:55:40.969Z,993.26
2018-01-01T06:56:40.961Z,993.33
2018-01-01T06:57:40.924Z,993.35
2018-01-01T06:58:40.886Z,993.29
2018-01-01T06:59:40.889Z,993.32
2018-01-01T07:00:40.853Z,993.47
2018-01-01T07:01:40.845Z,993.51
2018-01-01T07:02:40.831Z,993.46
2018-01-01T07:03:40.817Z,993.58
2018-01-01T07:04:40.819Z,993.52
2018-01-01T07:05:40.817Z,993.57
2018-01-01T07:06:40.774Z,993.68
2018-01-01T07:07:40.742Z,993.71
2018-01-01T07:08:40.704Z,993.76
2018-01-01T07:09:40.690Z,993.90
2018-01-01T07:10:40.667Z,993.84
2018-01-01T07:11:40.663Z,993.78
2018-01-01T07:12:40.627Z,993.79
2018-01-01T07:13:40.620Z,993.78
2018-01-01T07:14:40.608Z,993.84
2018-01-01T07:15:40.605Z,993.89
2018-01-01T07:16:40.551Z,993.98
2018-01-01T07:17:40.554Z,994.00
2018-01-01T07:18:40.516Z,994.16
2018-01-01T07:19:40.558Z,994.29
2018-01-01T07:20:40.468Z,994.41
2018-01-01T07:21:40.469Z,994.36
2018-01-01T07:22:40.437Z,994.35
2018-01-01T07:23:40.417Z,994.47
2018-01-01T07:24:40.381Z,994.47
2018-01-01T07:25:40.420Z,994.46
2018-01-01T07:26:40.403Z,994.41
2018-01-01T07:27:40.327Z,994.35
2018-01-01T07:28:40.307Z,994.29
2018-01-01T07:29:40.303Z,994.31
2018-01-01T07:30:40.283Z,994.34
2018-01-01T07:31:40.250Z,994.32
2018-01-01T07:32:40.224Z,994.32
2018-01-01T07:33:40.205Z,994.40
2018-01-01T07:34:40.196Z,994.49
2018-01-01T07:35:40.164Z,994.52
2018-01-01T07:36:40.141Z,994.46
2018-01-01T07:37:40.137Z,994.43
2018-01-01T07:38:40.138Z,994.40
2018-01-01T07:39:40.083Z,994.59
2018-01-01T07:40:40.083Z,994.55
2018-01-01T07:41:40.069Z,994.48
2018-01-01T07:42:40.025Z,994.42
2018-01-01T07:43:40.010Z,994.43
2018-01-01T07:44:39.992Z,994.39
2018-01-01T07:45:39.982Z,994.48
2018-01-01T07:46:39.958Z,994.47
2018-01-01T07:47:39.944Z,994.42
2018-01-01T07:48:39.909Z,994.44
2018-01-01T07:49:39.882Z,994.36
2018-01-01T07:50:39.883Z,994.41
2018-01-01T07:51:39.845Z,994.28
2018-01-01T07:52:39.832Z,994.33
2018-01-01T07:53:39.803Z,994.36
2018-01-01T07:54:39.800Z,994.31
2018-01-01T07:55:39.769Z,994.30
2018-01-01T07:56:39.734Z,994.31
2018-01-01T07:57:39.728Z,994.37
2018-01-01T07:58:39.689Z,994.38
2018-01-01T07:59:39.672Z,994.42
2018-01-01T08:00:39.657Z,994.48
2018-01-01T08:01:39.627Z,994.50
2018-01-01T08:02:39.621Z,994.44
2018-01-01T08:03:39.602Z,994.56
2018-01-01T08:04:39.587Z,994.54
2018-01-01T08:05:39.555Z,994.51
2018-01-01T08:06:39.526Z,994.59
2018-01-01T08:07:39.526Z,994.56
2018-01-01T08:08:39.489Z,994.52
2018-01-01T08:09:39.500Z,994.62
2018-01-01T08:10:39.450Z,994.66
2018-01-01T08:11:39.520Z,994.65
2018-01-01T08:12:39.401Z,994.65
2018-01-01T08:13:39.394Z,994.70
2018-01-01T08:14:39.369Z,994.58
2018-01-01T08:15:39.344Z,994.69
2018-01-01T08:16:39.330Z,994.70
2018-01-01T08:17:39.338Z,994.60
2018-01-01T08:18:39.304Z,994.74
2018-01-01T08:19:39.279Z,994.73
2018-01-01T08:20:39.248Z,994.71
2018-01-01T08:21:39.225Z,994.72
2018-01-01T08:22:39.223Z,994.69
2018-01-01T08:23:39.189Z,994.78
2018-01-01T08:24:39.210Z,994.79
2018-01-01T08:25:39.156Z,994.91
2018-01-01T08:26:39.148Z,994.84
2018-01-01T08:27:39.108Z,994.80
2018-01-01T08:28:39.099Z,994.90
2018-01-01T08:29:39.095Z,994.93
2018-01-01T08:30:39.044Z,994.86
2018-01-01T08:31:39.022Z,994.92
2018-01-01T08:32:39.050Z,994.97
2018-01-01T08:33:39.003Z,994.88
2018-01-01T08:34:38.969Z,994.99
2018-01-01T08:35:38.967Z,994.88
2018-01-01T08:36:38.930Z,994.87
2018-01-01T08:37:38.910Z,994.90
2018-01-01T08:38:38.894Z,994.96
2018-01-01T08:39:38.893Z,994.87
2018-01-01T08:40:38.845Z,994.96
2018-01-01T08:41:38.858Z,994.86
2018-01-01T08:42:38.811Z,994.99
2018-01-01T08:43:38.813Z,994.88
2018-01-01T08:44:38.762Z,995.03
2018-01-01T08:45:38.760Z,995.02
2018-01-01T08:46:38.739Z,995.04
2018-01-01T08:47:38.712Z,995.03
2018-01-01T08:48:38.686Z,994.94
2018-01-01T08:49:38.679Z,995.02
2018-01-01T08:50:38.660Z,995.03
2018-01-01T08:51:38.628Z,995.06
2018-01-01T08:52:38.613Z,994.96
2018-01-01T08:53:38.594Z,995.07
2018-01-01T08:54:38.603Z,995.09
2018-01-01T08:55:38.568Z,995.16
2018-01-01T08:56:38.532Z,995.00
2018-01-01T08:57:38.529Z,995.06
2018-01-01T08:58:38.496Z,995.04
2018-01-01T08:59:38.474Z,995.02
2018-01-01T09:00:38.475Z,995.06
2018-01-01T09:01:38.444Z,994.99
2018-01-01T09:02:38.432Z,994.95
2018-01-01T09:03:38.400Z,995.05
2018-01-01T09:04:38.384Z,995.03
2018-01-01T09:05:38.381Z,995.04
2018-01-01T09:06:38.345Z,995.06
2018-01-01T09:07:38.320Z,995.07
2018-01-01T09:08:38.305Z,995.06
2018-01-01T09:09:38.282Z,995.06
2018-01-01T09:10:38.260Z,995.08
2018-01-01T09:11:38.238Z,995.13
2018-01-01T09:12:38.222Z,995.11
2018-01-01T09:13:38.200Z,995.17
2018-01-01T09:14:38.222Z,995.05
2018-01-01T09:15:38.172Z,995.05
2018-01-01T09:16:38.159Z,995.08
2018-01-01T09:17:38.142Z,995.12
2018-01-01T09:18:38.141Z,995.04
2018-01-01T09:19:38.086Z,995.15
2018-01-01T09:20:38.068Z,995.16
2018-01-01T09:21:38.053Z,995.17
2018-01-01T09:22:38.054Z,995.16
2018-01-01T09:23:38.018Z,995.13
2018-01-01T09:24:37.989Z,995.14
2018-01-01T09:25:37.978Z,995.16
2018-01-01T09:26:37.948Z,995.12
2018-01-01T09:27:37.923Z,995.09
2018-01-01T09:28:37.907Z,995.11
2018-01-01T09:29:37.904Z,995.15
2018-01-01T09:30:37.888Z,995.11
2018-01-01T09:31:37.870Z,995.17
2018-01-01T09:32:37.849Z,995.10
2018-01-01T09:33:37.861Z,995.12
2018-01-01T09:34:37.789Z,995.16
2018-01-01T09:35:37.776Z,995.16
2018-01-01T09:36:37.754Z,995.16
2018-01-01T09:37:37.728Z,995.15
2018-01-01T09:38:37.711Z,995.17
2018-01-01T09:39:37.705Z,995.20
2018-01-01T09:40:37.688Z,995.23
2018-01-01T09:41:37.651Z,995.16
2018-01-01T09:42:37.644Z,995.09
2018-01-01T09:43:37.625Z,995.17
2018-01-01T09:44:37.609Z,995.15
2018-01-01T09:45:37.578Z,995.18
2018-01-01T09:46:37.570Z,995.15
2018-01-01T09:47:37.561Z,995.20
2018-01-01T09:48:37.548Z,995.18
2018-01-01T09:49:37.532Z,995.19
2018-01-01T09:50:37.491Z,995.18
2018-01-01T09:51:37.501Z,995.17
2018-01-01T09:52:37.459Z,995.18
2018-01-01T09:53:37.433Z,995.14
2018-01-01T09:54:37.415Z,995.05
2018-01-01T09:55:37.400Z,995.15
2018-01-01T09:56:37.385Z,995.14
2018-01-01T09:57:37.362Z,995.07
2018-01-01T09:58:37.341Z,994.98
2018-01-01T09:59:37.321Z,995.05
2018-01-01T10:00:37.320Z,995.03
2018-01-01T10:01:37.269Z,994.92
2018-01-01T10:02:37.255Z,994.94
2018-01-01T10:03:37.268Z,994.98
2018-01-01T10:04:37.234Z,994.92
2018-01-01T10:05:37.225Z,995.04
2018-01-01T10:06:37.244Z,994.96
2018-01-01T10:07:37.202Z,994.91
2018-01-01T10:08:37.142Z,994.98
2018-01-01T10:09:37.128Z,994.93
2018-01-01T10:10:37.114Z,994.91
2018-01-01T10:11:37.104Z,994.82
2018-01-01T10:12:37.070Z,994.89
2018-01-01T10:13:37.050Z,994.79
2018-01-01T10:14:37.033Z,994.76
2018-01-01T10:15:37.048Z,994.82
2018-01-01T10:16:37.007Z,994.72
2018-01-01T10:17:36.971Z,994.71
2018-01-01T10:18:36.978Z,994.75
2018-01-01T10:19:36.952Z,994.85
2018-01-01T10:20:36.926Z,994.83
2018-01-01T10:21:36.897Z,994.82
2018-01-01T10:22:36.906Z,994.82
2018-01-01T10:23:36.882Z,994.83
2018-01-01T10:24:36.844Z,994.72
2018-01-01T10:25:36.922Z,994.71
2018-01-01T10:26:36.813Z,994.75
2018-01-01T10:27:36.796Z,994.73
2018-01-01T10:28:36.782Z,994.63
2018-01-01T10:29:36.780Z,994.67
2018-01-01T10:30:36.770Z,994.67
2018-01-01T10:31:36.710Z,994.53
2018-01-01T10:32:36.706Z,994.68
2018-01-01T10:33:36.711Z,994.68
2018-01-01T10:34:36.660Z,994.65
2018-01-01T10:35:36.657Z,994.62
2018-01-01T10:36:36.642Z,994.65
2018-01-01T10:37:36.631Z,994.59
2018-01-01T10:38:36.585Z,994.64
2018-01-01T10:39:36.567Z,994.57
2018-01-01T10:40:36.546Z,994.58
2018-01-01T10:41:36.541Z,994.60
2018-01-01T10:42:36.510Z,994.68
2018-01-01T10:43:37.129Z,994.61
2018-01-01T10:44:36.510Z,994.61
2018-01-01T10:45:36.448Z,994.60
2018-01-01T10:46:36.435Z,994.62
2018-01-01T10:47:36.425Z,994.61
2018-01-01T10:48:36.436Z,994.63
2018-01-01T10:49:36.378Z,994.62
2018-01-01T10:50:36.360Z,994.60
2018-01-01T10:51:36.374Z,994.61
2018-01-01T10:52:36.320Z,994.54
2018-01-01T10:53:36.311Z,994.54
2018-01-01T10:54:36.295Z,994.52
2018-01-01T10:55:36.258Z,994.53
2018-01-01T10:56:36.264Z,994.51
2018-01-01T10:57:36.225Z,994.46
2018-01-01T10:58:36.222Z,994.50
2018-01-01T10:59:36.224Z,994.48
2018-01-01T11:00:36.192Z,994.46
2018-01-01T11:01:36.158Z,994.53
2018-01-01T11:02:36.130Z,994.52
2018-01-01T11:03:36.125Z,994.49
2018-01-01T11:04:36.099Z,994.41
2018-01-01T11:05:36.132Z,994.41
2018-01-01T11:06:36.065Z,994.50
2018-01-01T11:07:36.088Z,994.52
2018-01-01T11:08:36.035Z,994.43
2018-01-01T11:09:35.992Z,994.46
2018-01-01T11:10:35.987Z,994.46
2018-01-01T11:11:36.003Z,994.46
2018-01-01T11:12:35.946Z,994.50
2018-01-01T11:13:35.928Z,994.35
2018-01-01T11:14:35.904Z,994.45
2018-01-01T11:15:35.914Z,994.36
2018-01-01T11:16:35.882Z,994.38
2018-01-01T11:17:35.925Z,994.35
2018-01-01T11:18:35.910Z,994.39
2018-01-01T11:19:35.831Z,994.31
2018-01-01T11:20:35.841Z,994.29
2018-01-01T11:21:35.782Z,994.27
2018-01-01T11:22:35.765Z,994.22
2018-01-01T11:23:35.869Z,994.20
2018-01-01T11:24:35.746Z,994.15
2018-01-01T11:25:35.714Z,994.16
2018-01-01T11:26:35.686Z,994.21
2018-01-01T11:27:35.710Z,994.19
2018-01-01T11:28:35.699Z,994.13
2018-01-01T11:29:35.649Z,994.11
2018-01-01T11:30:35.658Z,994.10
2018-01-01T11:31:35.603Z,994.05
2018-01-01T11:32:35.594Z,994.04
2018-01-01T11:33:35.659Z,994.09
2018-01-01T11:34:35.539Z,994.07
2018-01-01T11:35:35.515Z,994.02
2018-01-01T11:36:35.533Z,993.99
2018-01-01T11:37:35.517Z,994.00
2018-01-01T11:38:35.483Z,994.00
2018-01-01T11:39:35.450Z,994.02
2018-01-01T11:40:35.489Z,994.09
2018-01-01T11:41:35.416Z,993.92
2018-01-01T11:42:35.396Z,993.98
2018-01-01T11:43:35.364Z,993.93
2018-01-01T11:44:35.388Z,993.93
2018-01-01T11:45:35.360Z,993.89
2018-01-01T11:46:35.329Z,993.82
2018-01-01T11:47:35.340Z,993.83
2018-01-01T11:48:35.337Z,993.88
2018-01-01T11:49:35.249Z,993.84
2018-01-01T11:50:35.238Z,993.87
2018-01-01T11:51:35.229Z,993.86
2018-01-01T11:52:35.206Z,993.89
2018-01-01T11:53:35.189Z,993.84
2018-01-01T11:54:35.179Z,993.88
2018-01-01T11:55:35.170Z,993.78
2018-01-01T11:56:35.134Z,993.85
2018-01-01T11:57:35.108Z,993.87
2018-01-01T11:58:35.087Z,993.83
2018-01-01T11:59:35.092Z,993.84
2018-01-01T12:00:35.060Z,993.76
2018-01-01T12:01:35.057Z,993.76
2018-01-01T12:02:35.014Z,993.74
2018-01-01T12:03:35.007Z,993.79
2018-01-01T12:04:34.977Z,993.76
2018-01-01T12:05:34.979Z,993.77
2018-01-01T12:06:34.941Z,993.77
2018-01-01T12:07:34.953Z,993.70
2018-01-01T12:08:35.001Z,993.66
2018-01-01T12:09:34.913Z,993.73
2018-01-01T12:10:34.891Z,993.67
2018-01-01T12:11:34.879Z,993.64
2018-01-01T12:12:34.852Z,993.64
2018-01-01T12:13:34.809Z,993.67
2018-01-01T12:14:34.799Z,993.62
2018-01-01T12:15:34.810Z,993.54
2018-01-01T12:16:34.779Z,993.59
2018-01-01T12:17:34.755Z,993.54
2018-01-01T12:18:34.726Z,993.51
2018-01-01T12:19:34.724Z,993.46
2018-01-01T12:20:34.693Z,993.50
2018-01-01T12:21:34.690Z,993.48
2018-01-01T12:22:34.649Z,993.45
2018-01-01T12:23:34.633Z,993.40
2018-01-01T12:24:34.627Z,993.38
2018-01-01T12:25:34.606Z,993.37
2018-01-01T12:26:34.591Z,993.35
2018-01-01T12:27:34.557Z,993.41
2018-01-01T12:28:34.539Z,993.41